Time;durP1;ratioP1;P1;durP2;ratioP2;P2;SDS_P1;SDS_P2;PMS_P1;PMS_P2;Temp;Humidity;BMP_temperature;BMP_pressure;BME280_temperature;BME280_humidity;BME280_pressure;Samples;Min_cycle;Max_cycle;Signal;HPM_P1;HPM_P2
2023/08/16 00:01:15;;;;;;;5.75;3.97;;;21.50;99.90;;;;;;5035360;28;20039;-39
2023/08/16 00:03:41;;;;;;;5.68;4.20;;;21.60;99.90;;;;;;5037798;28;20025;-39
2023/08/16 00:06:12;;;;;;;5.68;4.05;;;21.60;99.90;;;;;;5037746;28;20146;-38
2023/08/16 00:08:38;;;;;;;6.20;4.28;;;21.50;99.90;;;;;;5040053;28;20033;-40
2023/08/16 00:11:03;;;;;;;5.95;4.15;;;21.50;99.90;;;;;;5040170;28;20036;-39
2023/08/16 00:13:29;;;;;;;5.97;4.13;;;21.50;99.90;;;;;;5044633;28;20024;-40
2023/08/16 00:15:55;;;;;;;5.60;4.05;;;21.40;99.90;;;;;;5037242;28;20037;-39
2023/08/16 00:18:21;;;;;;;5.10;4.60;;;21.30;99.90;;;;;;5040427;28;20044;-41
2023/08/16 00:20:46;;;;;;;6.85;4.57;;;21.30;99.90;;;;;;5026220;28;20029;-41
2023/08/16 00:23:12;;;;;;;4.65;3.85;;;21.30;99.90;;;;;;5038059;28;20037;-37
2023/08/16 00:25:39;;;;;;;5.70;3.67;;;21.20;99.90;;;;;;5038791;28;20080;-33
2023/08/16 00:28:04;;;;;;;4.68;3.95;;;21.20;99.90;;;;;;5036614;28;20022;-32
2023/08/16 00:30:30;;;;;;;4.95;3.97;;;21.10;99.90;;;;;;5040059;28;20033;-30
2023/08/16 00:32:56;;;;;;;5.50;4.28;;;21.00;99.90;;;;;;5039658;28;20923;-33
2023/08/16 00:35:21;;;;;;;6.20;3.95;;;21.00;99.90;;;;;;5036640;28;20510;-31
2023/08/16 00:37:47;;;;;;;6.25;4.40;;;21.00;99.90;;;;;;5037292;28;20029;-30
2023/08/16 00:40:14;;;;;;;4.15;3.65;;;21.00;99.90;;;;;;5038610;28;20034;-34
2023/08/16 00:42:40;;;;;;;4.27;3.87;;;20.90;99.90;;;;;;5040269;28;20032;-31
2023/08/16 00:45:06;;;;;;;7.25;4.10;;;20.60;99.90;;;;;;5039331;28;20033;-37
2023/08/16 00:47:33;;;;;;;4.63;4.00;;;20.20;99.90;;;;;;5018995;28;20048;-40
2023/08/16 00:49:58;;;;;;;5.57;4.10;;;20.30;99.90;;;;;;5034808;28;21983;-41
2023/08/16 00:52:24;;;;;;;5.72;4.30;;;20.30;99.90;;;;;;5018012;28;20033;-35
2023/08/16 00:54:50;;;;;;;5.38;4.47;;;20.30;99.90;;;;;;5033309;28;20043;-39
2023/08/16 00:57:16;;;;;;;6.05;4.72;;;20.30;99.90;;;;;;5037582;28;21338;-41
2023/08/16 00:59:43;;;;;;;4.97;4.20;;;20.30;99.90;;;;;;5037529;28;20442;-39
2023/08/16 01:02:08;;;;;;;6.85;4.70;;;20.40;99.90;;;;;;5037357;28;20421;-39
2023/08/16 01:04:34;;;;;;;5.13;4.72;;;20.40;99.90;;;;;;5040517;28;20094;-41
2023/08/16 01:07:00;;;;;;;5.15;4.32;;;20.30;99.90;;;;;;5038461;28;20036;-42
2023/08/16 01:09:26;;;;;;;4.65;4.10;;;20.30;99.90;;;;;;5036688;28;20032;-41
2023/08/16 01:12:09;;;;;;;6.32;4.80;;;20.30;99.90;;;;;;5037567;28;20025;-41
2023/08/16 01:14:50;;;;;;;5.63;4.40;;;20.00;99.90;;;;;;5040881;28;20538;-40
2023/08/16 01:17:16;;;;;;;5.38;4.72;;;20.10;99.90;;;;;;5020645;28;20034;-42
2023/08/16 01:19:42;;;;;;;5.85;4.60;;;20.20;99.90;;;;;;5037958;28;20044;-41
2023/08/16 01:22:36;;;;;;;4.40;4.00;;;20.10;99.90;;;;;;5040096;28;20079;-39
2023/08/16 01:25:28;;;;;;;5.60;4.00;;;20.00;99.90;;;;;;5035099;28;20033;-40
2023/08/16 01:27:55;;;;;;;6.80;4.47;;;19.90;99.90;;;;;;5032308;28;20041;-40
2023/08/16 01:30:21;;;;;;;7.55;4.80;;;20.00;99.90;;;;;;5035177;28;20033;-41
2023/08/16 01:32:47;;;;;;;4.80;4.30;;;19.90;99.90;;;;;;5039087;28;20403;-37
2023/08/16 01:35:15;;;;;;;4.95;4.20;;;19.90;99.90;;;;;;5037165;28;20036;-39
2023/08/16 01:37:43;;;;;;;7.93;4.82;;;19.90;99.90;;;;;;5040226;28;20090;-39
2023/08/16 01:40:09;;;;;;;4.93;4.32;;;20.00;99.90;;;;;;5043033;28;20036;-40
2023/08/16 01:42:42;;;;;;;7.43;5.00;;;20.00;99.90;;;;;;5043269;28;20139;-41
2023/08/16 01:45:09;;;;;;;5.40;4.60;;;20.00;99.90;;;;;;5039671;28;20471;-41
2023/08/16 01:47:36;;;;;;;7.63;4.68;;;19.90;99.90;;;;;;5040769;28;20037;-42
2023/08/16 01:50:03;;;;;;;5.93;4.20;;;19.90;99.90;;;;;;5023823;28;20079;-38
2023/08/16 01:52:28;;;;;;;5.47;4.32;;;19.90;99.90;;;;;;5038334;28;20486;-40
2023/08/16 01:54:54;;;;;;;5.10;3.63;;;19.90;99.90;;;;;;5040550;28;20030;-41
2023/08/16 01:57:20;;;;;;;3.60;3.30;;;19.90;99.90;;;;;;5039179;28;20084;-38
2023/08/16 01:59:45;;;;;;;4.80;4.20;;;19.80;99.90;;;;;;5042074;28;20037;-36
2023/08/16 02:02:11;;;;;;;5.00;3.80;;;19.70;99.90;;;;;;5019372;28;20079;-33
2023/08/16 02:04:36;;;;;;;4.95;3.80;;;19.70;99.90;;;;;;5041031;28;20548;-40
2023/08/16 02:07:02;;;;;;;3.75;3.30;;;19.60;99.90;;;;;;5037961;28;20551;-41
2023/08/16 02:09:27;;;;;;;5.22;3.83;;;19.60;99.90;;;;;;5040889;28;20047;-41
2023/08/16 02:11:53;;;;;;;4.40;3.15;;;19.70;99.90;;;;;;5038751;28;20032;-41
2023/08/16 02:14:19;;;;;;;4.95;4.03;;;19.60;99.90;;;;;;5035899;28;20017;-33
2023/08/16 02:16:44;;;;;;;4.82;4.10;;;19.50;99.90;;;;;;5037240;28;20465;-41
2023/08/16 02:19:10;;;;;;;5.25;4.10;;;19.40;99.90;;;;;;5041447;28;20044;-41
2023/08/16 02:21:36;;;;;;;5.00;3.88;;;19.40;99.90;;;;;;5039206;28;20060;-39
2023/08/16 02:24:03;;;;;;;5.88;4.25;;;19.50;99.90;;;;;;5042194;28;20025;-41
2023/08/16 02:26:28;;;;;;;4.70;4.30;;;19.50;99.90;;;;;;5041482;28;20535;-40
2023/08/16 02:28:54;;;;;;;6.53;4.80;;;19.40;99.90;;;;;;5040431;28;20108;-41
2023/08/16 02:31:19;;;;;;;5.82;4.55;;;19.40;99.90;;;;;;5038949;28;20109;-40
2023/08/16 02:33:45;;;;;;;7.80;4.60;;;19.40;99.90;;;;;;5039567;28;20041;-36
2023/08/16 02:36:10;;;;;;;5.80;4.43;;;19.50;99.90;;;;;;5040669;28;20036;-41
2023/08/16 02:38:36;;;;;;;3.55;3.25;;;19.40;99.90;;;;;;5042975;28;20543;-39
2023/08/16 02:41:02;;;;;;;4.45;3.35;;;19.40;99.90;;;;;;5022408;28;20036;-40
2023/08/16 02:43:27;;;;;;;3.92;3.35;;;19.40;99.90;;;;;;5040371;28;20032;-40
2023/08/16 02:45:54;;;;;;;5.93;3.42;;;19.40;99.90;;;;;;5040584;28;20037;-36
2023/08/16 02:48:19;;;;;;;5.60;3.47;;;19.20;99.90;;;;;;5037181;28;20900;-30
2023/08/16 02:50:45;;;;;;;5.50;3.40;;;19.20;99.90;;;;;;5040181;28;20086;-30
2023/08/16 02:53:11;;;;;;;3.22;2.92;;;19.00;99.90;;;;;;5047734;28;20056;-30
2023/08/16 02:55:39;;;;;;;5.78;3.75;;;19.10;99.90;;;;;;5041938;28;20025;-31
2023/08/16 02:58:05;;;;;;;6.30;3.85;;;19.00;99.90;;;;;;5041868;28;20170;-37
2023/08/16 03:00:30;;;;;;;5.68;4.82;;;19.10;99.90;;;;;;5039709;28;20116;-31
2023/08/16 03:02:56;;;;;;;4.95;4.20;;;18.90;99.90;;;;;;5041045;28;20419;-34
2023/08/16 03:05:22;;;;;;;5.63;4.32;;;18.80;99.90;;;;;;5041416;28;20032;-30
2023/08/16 03:07:48;;;;;;;5.55;4.47;;;18.80;99.90;;;;;;5041700;28;20032;-35
2023/08/16 03:10:13;;;;;;;5.07;4.43;;;18.80;99.90;;;;;;5042899;28;20190;-38
2023/08/16 03:12:40;;;;;;;5.03;3.83;;;18.80;99.90;;;;;;5040694;28;20099;-30
2023/08/16 03:15:06;;;;;;;3.67;3.33;;;18.90;99.90;;;;;;5040919;28;20032;-34
2023/08/16 03:17:32;;;;;;;4.70;3.70;;;18.90;99.90;;;;;;5041970;28;20052;-34
2023/08/16 03:19:58;;;;;;;2.90;2.70;;;18.90;99.90;;;;;;5041487;28;20036;-34
2023/08/16 03:22:24;;;;;;;4.03;3.20;;;18.90;99.90;;;;;;5027007;28;20017;-30
2023/08/16 03:24:50;;;;;;;3.50;3.20;;;18.80;99.90;;;;;;5039939;28;20530;-38
2023/08/16 03:27:15;;;;;;;4.10;2.92;;;18.60;99.90;;;;;;5034165;28;20040;-40
2023/08/16 03:29:41;;;;;;;3.65;3.17;;;18.60;99.90;;;;;;5036876;28;20057;-39
2023/08/16 03:32:07;;;;;;;3.20;2.90;;;18.40;99.90;;;;;;5035091;28;20033;-38
2023/08/16 03:34:32;;;;;;;2.90;2.47;;;18.30;99.90;;;;;;5032973;28;20044;-34
2023/08/16 03:36:58;;;;;;;3.10;2.90;;;18.40;99.90;;;;;;5034710;28;20040;-35
2023/08/16 03:39:24;;;;;;;3.83;2.80;;;18.30;99.90;;;;;;5042146;28;20596;-40
2023/08/16 03:41:50;;;;;;;2.92;2.67;;;18.30;99.90;;;;;;5038036;28;20039;-36
2023/08/16 03:44:15;;;;;;;2.20;1.77;;;18.30;99.90;;;;;;5024191;28;20029;-40
2023/08/16 03:46:41;;;;;;;2.50;2.30;;;18.30;99.90;;;;;;5033822;28;20120;-42
2023/08/16 03:49:07;;;;;;;2.78;2.40;;;18.30;99.90;;;;;;5034123;28;20099;-39
2023/08/16 03:51:33;;;;;;;2.90;2.70;;;18.30;99.90;;;;;;5037383;28;20021;-40
2023/08/16 03:53:58;;;;;;;3.75;3.40;;;18.30;99.90;;;;;;5034984;28;20037;-40
2023/08/16 03:56:24;;;;;;;4.32;3.53;;;18.10;99.90;;;;;;5032647;28;20082;-41
2023/08/16 03:58:49;;;;;;;3.75;3.40;;;18.10;99.90;;;;;;5033501;28;20545;-40
2023/08/16 04:01:15;;;;;;;4.28;3.83;;;18.20;99.90;;;;;;5037203;28;20025;-34
2023/08/16 04:03:40;;;;;;;7.38;3.85;;;18.10;99.90;;;;;;5037462;28;20017;-41
2023/08/16 04:06:12;;;;;;;4.10;3.70;;;18.10;99.90;;;;;;5037386;28;20063;-38
2023/08/16 04:08:41;;;;;;;4.05;3.63;;;17.90;99.90;;;;;;5034265;28;20569;-40
2023/08/16 04:11:06;;;;;;;3.85;3.50;;;18.00;99.90;;;;;;5037428;28;20489;-39
2023/08/16 04:13:32;;;;;;;8.52;3.60;;;18.00;99.90;;;;;;5036462;28;20028;-39
2023/08/16 04:15:58;;;;;;;5.75;4.00;;;17.90;99.90;;;;;;5041184;28;20039;-37
2023/08/16 04:18:25;;;;;;;4.00;3.60;;;17.90;99.90;;;;;;5039003;28;20538;-40
2023/08/16 04:20:51;;;;;;;5.30;3.53;;;17.90;99.90;;;;;;5038268;28;20033;-41
2023/08/16 04:23:17;;;;;;;5.90;3.63;;;17.90;99.90;;;;;;5035915;28;20536;-33
2023/08/16 04:25:42;;;;;;;3.90;3.60;;;18.00;99.90;;;;;;5032838;28;20068;-42
2023/08/16 04:28:08;;;;;;;5.78;3.55;;;17.90;99.90;;;;;;5037570;28;20037;-37
2023/08/16 04:30:34;;;;;;;5.10;3.53;;;17.90;99.90;;;;;;5036606;28;20029;-40
2023/08/16 04:33:00;;;;;;;2.55;2.35;;;17.90;99.90;;;;;;5039973;28;20064;-40
2023/08/16 04:35:25;;;;;;;2.78;2.50;;;17.90;99.90;;;;;;5034081;28;20053;-40
2023/08/16 04:37:51;;;;;;;2.72;2.53;;;17.80;99.90;;;;;;5036053;28;20694;-41
2023/08/16 04:40:17;;;;;;;5.03;2.78;;;17.70;99.90;;;;;;5035822;28;20447;-40
2023/08/16 04:42:42;;;;;;;3.28;2.97;;;17.80;99.90;;;;;;5037393;28;20025;-40
2023/08/16 04:45:08;;;;;;;3.67;2.80;;;17.80;99.90;;;;;;5034544;28;20033;-40
2023/08/16 04:47:34;;;;;;;2.20;2.10;;;17.90;99.90;;;;;;5032855;28;20116;-39
2023/08/16 04:50:03;;;;;;;1.95;1.85;;;17.90;99.90;;;;;;5036303;28;20097;-38
2023/08/16 04:52:28;;;;;;;1.92;1.83;;;17.90;99.90;;;;;;5032350;28;20112;-39
2023/08/16 04:54:54;;;;;;;2.70;2.40;;;18.00;99.90;;;;;;5033460;28;20074;-40
2023/08/16 04:57:20;;;;;;;2.35;2.10;;;18.10;99.90;;;;;;5033107;28;21270;-41
2023/08/16 04:59:45;;;;;;;1.50;1.40;;;18.10;99.90;;;;;;5035741;28;20036;-40
2023/08/16 05:02:11;;;;;;;1.63;1.35;;;18.10;99.90;;;;;;5032662;28;20068;-40
2023/08/16 05:04:36;;;;;;;2.00;1.90;;;18.00;99.90;;;;;;5032831;28;20117;-38
2023/08/16 05:07:02;;;;;;;4.13;2.28;;;18.00;99.90;;;;;;5033827;28;20120;-37
2023/08/16 05:09:27;;;;;;;2.40;2.30;;;18.00;99.90;;;;;;5030335;28;20442;-37
2023/08/16 05:11:53;;;;;;;2.58;2.38;;;18.10;99.90;;;;;;5035555;28;20033;-41
2023/08/16 05:14:19;;;;;;;2.80;2.60;;;18.20;99.90;;;;;;5017109;28;20457;-40
2023/08/16 05:16:44;;;;;;;3.45;3.15;;;18.30;99.90;;;;;;5037369;28;20057;-41
2023/08/16 05:19:10;;;;;;;5.22;3.50;;;18.30;99.90;;;;;;5038971;28;20025;-39
2023/08/16 05:21:35;;;;;;;5.30;4.20;;;18.40;99.90;;;;;;5035941;28;20057;-38
2023/08/16 05:24:01;;;;;;;8.23;4.85;;;18.40;99.90;;;;;;5035255;28;20122;-40
2023/08/16 05:26:27;;;;;;;7.28;4.10;;;18.50;99.90;;;;;;5024163;28;20040;-41
2023/08/16 05:28:52;;;;;;;4.93;3.70;;;18.50;99.90;;;;;;5040986;28;20103;-41
2023/08/16 05:31:18;;;;;;;3.80;3.40;;;18.50;99.90;;;;;;5037572;28;20529;-38
2023/08/16 05:33:44;;;;;;;5.03;4.18;;;18.60;99.90;;;;;;5040824;28;20171;-41
2023/08/16 05:36:10;;;;;;;5.18;4.30;;;18.70;99.90;;;;;;5026205;28;20025;-41
2023/08/16 05:38:36;;;;;;;6.20;4.38;;;18.60;99.90;;;;;;5036995;28;20037;-41
2023/08/16 05:41:04;;;;;;;8.07;4.75;;;18.80;99.90;;;;;;5041899;28;20036;-39
2023/08/16 05:43:31;;;;;;;6.07;5.13;;;18.80;99.90;;;;;;5019587;28;20396;-41
2023/08/16 05:45:56;;;;;;;4.82;4.10;;;19.00;99.90;;;;;;5036896;28;20025;-41
2023/08/16 05:48:22;;;;;;;7.00;4.88;;;19.10;99.90;;;;;;5033545;28;20029;-41
2023/08/16 05:50:47;;;;;;;6.97;5.35;;;19.10;99.90;;;;;;5033917;28;20875;-42
2023/08/16 05:53:13;;;;;;;5.35;4.75;;;19.20;99.90;;;;;;5033587;28;20032;-37
2023/08/16 05:55:39;;;;;;;6.63;4.55;;;19.30;99.90;;;;;;5037464;28;20024;-41
2023/08/16 05:58:04;;;;;;;6.22;4.90;;;19.40;99.90;;;;;;5035662;28;20882;-35
2023/08/16 06:00:30;;;;;;;7.47;5.05;;;19.50;99.90;;;;;;5034706;28;20477;-40
2023/08/16 06:02:56;;;;;;;6.50;5.10;;;19.60;99.90;;;;;;5034907;28;20041;-40
2023/08/16 06:05:21;;;;;;;7.20;5.15;;;19.70;99.90;;;;;;5034339;28;20033;-40
2023/08/16 06:07:47;;;;;;;7.75;5.22;;;19.90;99.90;;;;;;5037629;28;21596;-40
2023/08/16 06:10:13;;;;;;;7.30;5.80;;;20.00;99.90;;;;;;5040516;28;20037;-35
2023/08/16 06:12:38;;;;;;;6.32;5.55;;;20.20;99.90;;;;;;5041414;28;20116;-39
2023/08/16 06:15:11;;;;;;;8.55;5.65;;;20.30;99.90;;;;;;5041229;28;20020;-35
2023/08/16 06:17:37;;;;;;;7.93;5.72;;;20.40;99.90;;;;;;5040025;28;20049;-33
2023/08/16 06:20:03;;;;;;;6.75;5.38;;;20.50;99.90;;;;;;5039363;28;20021;-32
2023/08/16 06:22:29;;;;;;;6.55;5.72;;;20.60;99.90;;;;;;5038066;28;20083;-33
2023/08/16 06:24:54;;;;;;;7.57;5.32;;;20.70;99.90;;;;;;5023997;28;20060;-32
2023/08/16 06:27:20;;;;;;;6.80;6.03;;;20.90;99.90;;;;;;5042298;28;20035;-33
2023/08/16 06:29:46;;;;;;;6.15;5.55;;;20.90;99.90;;;;;;5041489;28;20036;-32
2023/08/16 06:32:12;;;;;;;7.07;6.05;;;21.00;99.90;;;;;;5039694;28;20056;-34
2023/08/16 06:34:38;;;;;;;7.88;5.70;;;21.10;99.90;;;;;;5036930;28;20033;-33
2023/08/16 06:37:04;;;;;;;8.25;5.70;;;21.10;99.90;;;;;;5041469;28;20037;-35
2023/08/16 06:39:29;;;;;;;6.47;5.80;;;21.20;99.90;;;;;;5034180;28;20435;-34
2023/08/16 06:41:55;;;;;;;8.27;6.20;;;21.30;99.90;;;;;;5040295;28;20124;-32
2023/08/16 06:44:21;;;;;;;7.85;6.43;;;21.30;99.90;;;;;;5040095;28;20033;-36
2023/08/16 06:46:46;;;;;;;8.43;6.00;;;21.20;99.90;;;;;;5043232;28;20017;-32
2023/08/16 06:49:12;;;;;;;7.43;6.05;;;21.30;99.90;;;;;;5043257;28;20025;-32
2023/08/16 06:51:37;;;;;;;7.75;5.55;;;21.50;99.90;;;;;;5038406;28;20463;-34
2023/08/16 06:54:03;;;;;;;7.28;5.53;;;21.60;99.90;;;;;;5042253;28;20021;-38
2023/08/16 06:56:29;;;;;;;7.28;5.43;;;21.70;99.90;;;;;;5026986;28;20033;-41
2023/08/16 06:58:55;;;;;;;6.40;5.40;;;21.80;99.90;;;;;;5040963;28;20066;-37
2023/08/16 07:01:20;;;;;;;6.40;5.20;;;21.80;99.90;;;;;;5033376;28;20529;-39
2023/08/16 07:03:48;;;;;;;7.50;5.32;;;21.90;99.90;;;;;;5036409;28;20029;-41
2023/08/16 07:06:13;;;;;;;7.00;5.90;;;22.10;99.90;;;;;;5034786;28;20383;-37
2023/08/16 07:08:40;;;;;;;6.10;5.50;;;22.30;99.90;;;;;;5039736;28;20278;-41
2023/08/16 07:11:06;;;;;;;5.15;4.65;;;22.40;99.90;;;;;;5038419;28;20443;-37
2023/08/16 07:13:32;;;;;;;6.78;5.15;;;22.60;99.90;;;;;;5042537;28;20052;-41
2023/08/16 07:15:58;;;;;;;6.07;5.18;;;22.70;99.90;;;;;;5040912;28;20052;-39
2023/08/16 07:18:24;;;;;;;7.25;5.18;;;22.80;99.90;;;;;;5022033;28;20056;-40
2023/08/16 07:20:50;;;;;;;6.40;5.72;;;22.80;99.90;;;;;;5039847;28;20033;-41
2023/08/16 07:23:16;;;;;;;6.15;5.55;;;22.80;99.90;;;;;;5037893;28;20040;-41
2023/08/16 07:25:42;;;;;;;7.28;5.93;;;22.80;99.90;;;;;;5039747;28;20021;-40
2023/08/16 07:28:07;;;;;;;6.88;5.25;;;22.90;99.90;;;;;;5042613;28;20037;-39
2023/08/16 07:30:37;;;;;;;6.93;4.75;;;22.90;99.90;;;;;;5040300;28;20051;-41
2023/08/16 07:33:04;;;;;;;8.10;5.57;;;23.10;99.90;;;;;;5040369;28;20651;-39
2023/08/16 07:35:30;;;;;;;5.43;4.85;;;23.10;99.90;;;;;;5036782;28;20033;-38
2023/08/16 07:37:56;;;;;;;5.57;4.55;;;23.30;99.90;;;;;;5040632;28;20033;-41
2023/08/16 07:40:22;;;;;;;5.93;4.55;;;23.40;99.90;;;;;;5042543;28;20383;-41
2023/08/16 07:42:47;;;;;;;5.38;4.88;;;23.40;99.90;;;;;;5038796;28;20036;-40
2023/08/16 07:45:13;;;;;;;4.57;4.18;;;23.60;99.90;;;;;;5036256;28;20037;-34
2023/08/16 07:47:38;;;;;;;7.30;5.00;;;23.70;99.90;;;;;;5028312;28;20048;-39
2023/08/16 07:50:04;;;;;;;5.90;4.15;;;23.70;99.90;;;;;;5041666;28;20121;-41
2023/08/16 07:52:30;;;;;;;5.82;4.18;;;23.70;99.90;;;;;;5036987;28;20371;-39
2023/08/16 07:54:56;;;;;;;5.13;4.28;;;23.70;99.90;;;;;;5021768;28;20048;-40
2023/08/16 07:57:21;;;;;;;6.63;4.90;;;23.80;99.90;;;;;;5043374;28;20047;-40
2023/08/16 07:59:47;;;;;;;4.95;4.20;;;23.90;99.90;;;;;;5040991;28;20035;-43
2023/08/16 08:02:12;;;;;;;6.07;4.40;;;23.90;99.90;;;;;;5036693;28;20093;-41
2023/08/16 08:04:38;;;;;;;5.25;4.57;;;24.00;99.90;;;;;;5023008;28;20447;-39
2023/08/16 08:07:04;;;;;;;4.22;3.88;;;24.10;99.90;;;;;;5040016;28;20060;-35
2023/08/16 08:09:31;;;;;;;5.13;4.55;;;24.20;99.90;;;;;;5038939;28;20033;-35
2023/08/16 08:11:57;;;;;;;6.93;4.55;;;24.20;99.90;;;;;;5038308;28;20813;-41
2023/08/16 08:14:23;;;;;;;5.03;4.43;;;24.30;99.90;;;;;;5036270;28;20032;-40
2023/08/16 08:16:49;;;;;;;6.07;4.32;;;24.40;99.90;;;;;;5039768;28;20045;-39
2023/08/16 08:19:15;;;;;;;5.57;4.30;;;24.60;99.90;;;;;;5036136;28;20039;-36
2023/08/16 08:21:40;;;;;;;4.65;4.25;;;24.80;99.90;;;;;;5037355;28;20025;-42
2023/08/16 08:24:06;;;;;;;4.63;4.13;;;24.90;99.90;;;;;;5040582;28;20083;-37
2023/08/16 08:26:32;;;;;;;4.97;4.10;;;25.20;99.90;;;;;;5040895;28;20662;-38
2023/08/16 08:28:58;;;;;;;4.68;4.00;;;25.30;99.90;;;;;;5020491;28;20032;-41
2023/08/16 08:31:23;;;;;;;6.07;4.32;;;25.30;99.90;;;;;;5035094;28;20140;-41
2023/08/16 08:33:49;;;;;;;4.85;4.35;;;25.30;99.90;;;;;;5035774;28;20028;-42
2023/08/16 08:36:15;;;;;;;4.78;4.00;;;25.30;99.90;;;;;;5038512;28;20121;-37
2023/08/16 08:38:41;;;;;;;6.03;3.97;;;25.40;99.90;;;;;;5037918;28;20029;-42
2023/08/16 08:41:08;;;;;;;6.63;3.80;;;25.50;99.90;;;;;;5032798;28;20032;-36
2023/08/16 08:43:35;;;;;;;4.88;3.53;;;25.50;99.90;;;;;;5040899;28;20068;-41
2023/08/16 08:46:03;;;;;;;3.63;3.33;;;25.80;99.90;;;;;;5035320;28;20021;-41
2023/08/16 08:48:29;;;;;;;3.78;3.40;;;25.80;99.90;;;;;;5037943;28;20337;-40
2023/08/16 08:50:56;;;;;;;3.40;3.10;;;25.90;99.90;;;;;;5039861;28;20043;-41
2023/08/16 08:53:22;;;;;;;4.15;3.60;;;26.00;99.90;;;;;;5036638;28;20024;-41
2023/08/16 08:55:52;;;;;;;4.00;3.60;;;26.10;99.90;;;;;;5039133;28;20024;-43
2023/08/16 08:58:19;;;;;;;3.88;3.53;;;26.00;99.90;;;;;;5040736;28;20486;-42
2023/08/16 09:00:46;;;;;;;5.78;3.47;;;26.10;99.90;;;;;;5039456;28;20028;-42
2023/08/16 09:03:12;;;;;;;3.58;3.20;;;26.10;99.90;;;;;;5040136;28;20032;-40
2023/08/16 09:05:40;;;;;;;4.50;3.50;;;26.20;99.90;;;;;;5037450;28;20114;-38
2023/08/16 09:08:06;;;;;;;3.45;3.13;;;26.40;99.90;;;;;;5036308;28;20036;-38
2023/08/16 09:10:38;;;;;;;3.90;3.40;;;26.50;99.90;;;;;;5039868;28;20044;-39
2023/08/16 09:13:10;;;;;;;3.53;3.25;;;26.40;99.90;;;;;;5037605;28;20033;-36
2023/08/16 09:15:37;;;;;;;3.80;2.92;;;26.30;99.90;;;;;;5039898;28;20032;-40
2023/08/16 09:18:29;;;;;;;4.50;3.20;;;26.30;99.90;;;;;;5035240;28;20502;-41
2023/08/16 09:20:59;;;;;;;3.55;3.08;;;26.50;99.90;;;;;;5034106;28;20038;-40
2023/08/16 09:23:25;;;;;;;3.80;2.75;;;26.90;99.90;;;;;;5034275;28;20364;-39
2023/08/16 09:25:51;;;;;;;2.50;2.30;;;27.20;99.90;;;;;;5038930;28;20033;-42
2023/08/16 09:28:17;;;;;;;3.75;2.40;;;27.60;99.90;;;;;;5042730;28;20024;-42
2023/08/16 09:30:43;;;;;;;2.63;2.42;;;27.80;99.90;;;;;;5040386;28;20037;-38
2023/08/16 09:33:13;;;;;;;2.72;1.80;;;27.80;99.90;;;;;;5035522;28;20456;-42
2023/08/16 09:35:44;;;;;;;2.72;2.20;;;27.90;99.90;;;;;;5041940;28;20025;-40
2023/08/16 09:38:14;;;;;;;2.50;2.25;;;27.90;99.90;;;;;;5034455;28;20032;-39
2023/08/16 09:40:50;;;;;;;2.53;2.30;;;27.60;99.90;;;;;;5041740;28;20021;-42
2023/08/16 09:43:16;;;;;;;3.38;2.40;;;27.50;99.90;;;;;;5037118;28;20045;-36
2023/08/16 09:45:43;;;;;;;2.63;2.38;;;27.80;99.90;;;;;;5039355;28;20024;-39
2023/08/16 09:48:09;;;;;;;2.85;2.17;;;27.40;99.90;;;;;;5026383;28;21104;-34
2023/08/16 09:50:35;;;;;;;4.28;2.10;;;27.20;99.90;;;;;;5035974;28;20095;-33
2023/08/16 09:53:04;;;;;;;2.00;1.83;;;27.10;99.90;;;;;;5038832;28;20390;-32
2023/08/16 09:55:31;;;;;;;2.70;2.30;;;27.10;99.90;;;;;;5039386;28;20063;-32
2023/08/16 09:57:58;;;;;;;3.72;2.50;;;27.20;99.90;;;;;;5040066;28;20518;-32
2023/08/16 10:00:25;;;;;;;2.55;2.22;;;27.40;99.90;;;;;;5037576;28;20037;-33
2023/08/16 10:02:52;;;;;;;2.78;2.55;;;27.50;99.90;;;;;;5038717;28;20061;-32
2023/08/16 10:05:18;;;;;;;1.98;1.88;;;27.50;99.90;;;;;;5027695;28;20036;-32
2023/08/16 10:07:47;;;;;;;2.75;2.42;;;27.50;99.90;;;;;;5043046;28;20037;-34
2023/08/16 10:10:13;;;;;;;2.50;2.30;;;27.50;99.90;;;;;;5025930;28;20031;-38
2023/08/16 10:12:39;;;;;;;2.55;2.13;;;27.40;99.90;;;;;;5042031;28;20024;-35
2023/08/16 10:15:05;;;;;;;2.50;2.10;;;27.20;99.90;;;;;;5041907;28;20059;-35
2023/08/16 10:17:32;;;;;;;2.08;1.92;;;27.30;99.90;;;;;;5041833;28;20514;-33
2023/08/16 10:20:06;;;;;;;2.00;1.90;;;27.50;99.90;;;;;;5036457;28;20040;-33
2023/08/16 10:22:38;;;;;;;1.90;1.70;;;27.60;99.90;;;;;;5046434;28;20062;-34
2023/08/16 10:25:23;;;;;;;4.07;2.17;;;27.70;99.90;;;;;;5035377;28;20030;-36
2023/08/16 10:27:50;;;;;;;2.30;2.13;;;27.60;99.90;;;;;;5042672;28;20031;-40
2023/08/16 10:30:25;;;;;;;2.78;2.10;;;27.60;99.90;;;;;;5041062;28;20407;-41
2023/08/16 10:33:18;;;;;;;2.17;1.98;;;27.80;99.90;;;;;;5041753;28;20468;-38
2023/08/16 10:35:47;;;;;;;1.92;1.83;;;28.10;99.90;;;;;;5029142;28;20494;-39
2023/08/16 10:38:12;;;;;;;1.60;1.50;;;28.30;99.90;;;;;;5041701;28;20036;-37
2023/08/16 10:40:38;;;;;;;2.13;1.80;;;28.30;99.90;;;;;;5040400;28;20489;-37
2023/08/16 10:43:05;;;;;;;2.05;1.45;;;28.60;99.90;;;;;;5039802;28;20511;-34
2023/08/16 10:45:34;;;;;;;2.17;1.65;;;28.90;99.90;;;;;;5040825;28;20100;-39
2023/08/16 10:48:16;;;;;;;1.90;1.70;;;29.20;99.90;;;;;;5041349;28;20029;-37
2023/08/16 10:50:42;;;;;;;2.10;1.63;;;29.00;99.90;;;;;;5043411;28;20043;-36
2023/08/16 10:53:08;;;;;;;2.33;1.83;;;28.70;99.90;;;;;;5040047;28;20025;-39
2023/08/16 10:55:34;;;;;;;2.10;1.90;;;28.80;99.90;;;;;;5041963;28;20072;-38
2023/08/16 10:58:00;;;;;;;1.90;1.80;;;28.70;99.90;;;;;;5044280;28;20833;-36
2023/08/16 11:00:36;;;;;;;2.15;1.95;;;28.60;99.90;;;;;;5022795;28;20048;-40
2023/08/16 11:03:04;;;;;;;2.08;1.80;;;28.70;99.90;;;;;;5034852;28;20040;-40
2023/08/16 11:05:34;;;;;;;2.88;2.13;;;29.00;99.90;;;;;;5041539;28;20542;-41
2023/08/16 11:08:04;;;;;;;1.75;1.65;;;29.10;99.90;;;;;;5036826;28;20053;-38
2023/08/16 11:10:34;;;;;;;2.55;1.90;;;29.10;99.90;;;;;;5041503;28;20119;-35
2023/08/16 11:13:02;;;;;;;3.85;1.80;;;29.20;99.90;;;;;;5037624;28;20478;-40
2023/08/16 11:15:27;;;;;;;;;;;29.10;99.90;;;;;;5041767;28;20037;-40
2023/08/16 11:17:55;;;;;;;2.38;2.17;;;28.80;99.90;;;;;;5039809;28;20349;-40
2023/08/16 11:20:21;;;;;;;2.47;1.95;;;28.80;99.90;;;;;;5043283;28;20036;-37
2023/08/16 11:22:47;;;;;;;2.30;2.10;;;29.00;99.90;;;;;;5036454;28;20041;-38
2023/08/16 11:25:12;;;;;;;2.83;2.10;;;29.10;99.90;;;;;;5040415;28;20097;-39
2023/08/16 11:27:38;;;;;;;4.53;2.17;;;29.10;99.90;;;;;;5038611;28;20032;-40
2023/08/16 11:30:05;;;;;;;2.63;2.13;;;29.20;99.90;;;;;;5037493;28;20037;-34
2023/08/16 11:32:38;;;;;;;2.63;2.30;;;29.10;99.90;;;;;;5034364;28;20163;-39
2023/08/16 11:35:08;;;;;;;2.70;2.25;;;29.30;99.90;;;;;;5037642;28;20041;-37
2023/08/16 11:37:35;;;;;;;2.58;2.10;;;29.30;99.90;;;;;;5034525;28;20414;-32
2023/08/16 11:40:04;;;;;;;2.37;2.17;;;29.40;99.90;;;;;;5035511;28;20028;-32
2023/08/16 11:42:30;;;;;;;3.80;2.40;;;29.50;99.90;;;;;;5040492;28;20032;-34
2023/08/16 11:44:56;;;;;;;2.70;2.50;;;29.10;99.90;;;;;;5022961;28;20033;-35
2023/08/16 11:47:22;;;;;;;2.33;2.13;;;28.90;99.90;;;;;;5039865;28;20033;-35
2023/08/16 11:49:49;;;;;;;2.50;2.00;;;28.80;99.90;;;;;;5039706;28;20493;-31
2023/08/16 11:52:20;;;;;;;4.72;2.33;;;28.90;99.90;;;;;;5037296;28;20033;-34
2023/08/16 11:54:46;;;;;;;1.92;1.80;;;29.00;99.90;;;;;;5036348;28;20494;-31
2023/08/16 11:57:19;;;;;;;1.73;1.63;;;29.20;99.90;;;;;;5036196;28;20029;-37
2023/08/16 11:59:56;;;;;;;2.65;1.95;;;29.40;99.90;;;;;;5038748;28;20076;-31
2023/08/16 12:02:23;;;;;;;2.40;2.20;;;29.50;99.90;;;;;;5038954;28;20087;-35
2023/08/16 12:04:49;;;;;;;3.67;2.33;;;29.20;99.90;;;;;;5037044;28;20099;-33
2023/08/16 12:07:15;;;;;;;2.58;2.17;;;29.20;99.90;;;;;;5037327;28;20124;-35
2023/08/16 12:09:41;;;;;;;2.13;1.88;;;29.30;99.90;;;;;;5014066;28;20029;-33
2023/08/16 12:12:08;;;;;;;3.53;2.40;;;29.80;99.90;;;;;;5032414;28;20100;-34
2023/08/16 12:14:34;;;;;;;3.40;2.20;;;29.70;99.90;;;;;;5040184;28;20265;-35
2023/08/16 12:17:00;;;;;;;2.45;2.25;;;29.50;99.90;;;;;;5040321;28;20071;-32
2023/08/16 12:19:25;;;;;;;2.33;2.13;;;29.50;99.90;;;;;;5040743;28;20136;-31
2023/08/16 12:21:52;;;;;;;3.08;2.60;;;29.70;99.90;;;;;;5041808;28;20041;-31
2023/08/16 12:24:19;;;;;;;3.38;2.30;;;29.70;99.90;;;;;;5034575;28;20415;-34
2023/08/16 12:26:45;;;;;;;2.42;2.10;;;29.50;99.90;;;;;;5036717;28;20059;-32
2023/08/16 12:29:10;;;;;;;3.55;2.42;;;29.20;99.90;;;;;;5039181;28;20032;-33
2023/08/16 12:31:36;;;;;;;2.45;2.25;;;29.20;99.90;;;;;;5037904;28;20111;-31
2023/08/16 12:34:02;;;;;;;5.30;2.50;;;29.20;99.90;;;;;;5037358;28;21842;-36
2023/08/16 12:36:27;;;;;;;3.90;2.58;;;29.20;99.90;;;;;;5039933;28;20033;-32
2023/08/16 12:38:53;;;;;;;4.53;2.58;;;29.20;99.90;;;;;;5040699;28;20047;-31
2023/08/16 12:41:19;;;;;;;3.60;2.80;;;29.40;99.90;;;;;;5034249;28;20483;-33
2023/08/16 12:43:44;;;;;;;3.33;2.72;;;29.30;99.90;;;;;;5015821;28;20025;-31
2023/08/16 12:46:10;;;;;;;3.80;2.90;;;29.20;99.90;;;;;;5038420;28;20025;-39